Terminal Aerodrome Forecast
Issued by NWS

Current Version | Previous Version | Text Only | Print | Product List | Glossary Off
Versions: 1 2 3 4 5 6 7 8 9 10 11 12 13 14 15 16 17 18 19 20 21 22 23 24

000
FTUS41 KILN 271746
TAFLCK
TAF
KLCK 271746Z 2718/2818 23015G22KT P6SM VCSH BKN045
     FM272030 25018G25KT P6SM BKN040
     FM280000 27014G22KT P6SM FEW040
     FM280200 26006KT P6SM FEW150
     FM281200 16005KT P6SM BKN150
     FM281600 17008KT P6SM BKN100=

USA.gov is the U.S. government's official web portal to all federal, state and local government web resources and services.